Time;durP1;ratioP1;P1;durP2;ratioP2;P2;SDS_P1;SDS_P2;PMS_P1;PMS_P2;Temp;Humidity;BMP_temperature;BMP_pressure;BME280_temperature;BME280_humidity;BME280_pressure;Samples;Min_cycle;Max_cycle;Signal;HPM_P1;HPM_P2
2022/01/20 00:00:44;;;;;;;;;30.50;28.00;;;;;9.38;65.65;102358.88;5039414;28;45227;-49
2022/01/20 00:03:15;;;;;;;;;30.25;26.50;;;;;9.36;65.43;102362.31;5021036;28;45381;-50
2022/01/20 00:06:39;;;;;;;;;34.75;32.50;;;;;9.36;65.30;102357.94;5041096;28;46233;-49
2022/01/20 00:27:17;;;;;;;;;26.75;22.25;;;;;9.26;65.28;102383.13;5042089;28;45286;-49
2022/01/20 00:30:09;;;;;;;;;32.00;25.25;;;;;9.24;65.30;102373.47;5042456;28;45237;-50
2022/01/20 00:35:20;;;;;;;;;32.75;28.25;;;;;9.23;65.29;102355.97;5042230;28;45310;-48
2022/01/20 00:37:46;;;;;;;;;33.25;28.50;;;;;9.23;65.20;102350.72;5042296;28;46161;-50
2022/01/20 00:40:13;;;;;;;;;31.25;26.00;;;;;9.21;65.31;102345.44;5041894;28;45154;-52
2022/01/20 00:42:38;;;;;;;;;17.50;14.00;;;;;9.19;65.11;102349.78;5024690;28;45253;-51
2022/01/20 00:45:05;;;;;;;;;30.50;29.25;;;;;9.17;65.38;102354.13;5042062;28;45297;-51
2022/01/20 00:47:30;;;;;;;;;26.50;22.75;;;;;9.16;65.17;102359.34;5042036;28;45364;-47
2022/01/20 00:49:56;;;;;;;;;30.25;28.75;;;;;9.14;65.14;102347.94;5049575;28;45387;-52
2022/01/20 00:52:21;;;;;;;;;32.25;29.25;;;;;9.11;65.18;102356.63;5042226;28;45380;-50
2022/01/20 00:54:47;;;;;;;;;29.50;24.50;;;;;9.11;64.93;102360.13;5023894;28;45349;-52
2022/01/20 00:57:12;;;;;;;;;30.25;27.50;;;;;9.09;65.09;102363.59;5042100;28;45403;-50
2022/01/20 00:59:38;;;;;;;;;25.00;25.00;;;;;9.07;65.14;102360.06;5041717;28;45266;-49
2022/01/20 01:02:08;;;;;;;;;27.00;23.50;;;;;9.02;65.10;102357.34;5042281;28;45293;-48
2022/01/20 01:04:34;;;;;;;;;32.50;24.50;;;;;9.02;65.02;102346.88;5041542;28;45503;-49
2022/01/20 01:09:44;;;;;;;;;28.25;25.25;;;;;8.95;64.89;102358.09;5049423;28;45301;-49
2022/01/20 01:12:16;;;;;;;;;29.25;23.50;;;;;8.96;65.11;102375.59;5061930;28;45339;-50
2022/01/20 01:14:47;;;;;;;;;19.75;19.00;;;;;8.94;64.93;102364.19;5043687;28;45391;-48
2022/01/20 01:22:23;;;;;;;;;29.00;26.50;;;;;8.88;65.00;102375.47;5061981;28;45245;-54
2022/01/20 01:24:52;;;;;;;;;30.50;27.75;;;;;8.86;64.82;102382.41;5061478;28;45438;-51
2022/01/20 01:27:19;;;;;;;;;28.50;27.25;;;;;8.84;64.66;102378.88;5061328;28;45233;-51
2022/01/20 01:32:16;;;;;;;;;28.50;26.25;;;;;8.80;64.79;102391.91;5061651;28;45417;-48
2022/01/20 01:34:47;;;;;;;;;24.75;23.25;;;;;8.78;64.70;102405.84;5061320;28;45577;-47
2022/01/20 01:40:08;;;;;;;;;35.00;25.50;;;;;8.72;64.80;102397.88;5037332;28;45400;-50
2022/01/20 01:42:41;;;;;;;;;28.00;24.75;;;;;8.73;64.75;102406.59;5061560;28;45341;-52
2022/01/20 01:45:15;;;;;;;;;27.75;20.00;;;;;8.70;64.94;102404.81;5061250;28;45341;-50
2022/01/20 01:47:41;;;;;;;;;23.75;20.25;;;;;8.67;64.87;102403.88;5042822;28;46433;-51
2022/01/20 01:50:07;;;;;;;;;20.50;14.75;;;;;8.66;64.48;102409.97;5055310;28;45387;-48
2022/01/20 01:52:33;;;;;;;;;22.50;21.25;;;;;8.65;64.70;102416.94;5041448;28;45246;-51
2022/01/20 01:54:58;;;;;;;;;21.25;20.50;;;;;8.64;64.66;102416.91;5040777;28;45340;-52
2022/01/20 01:57:25;;;;;;;;;19.50;17.00;;;;;8.60;64.61;102423.81;5041403;28;46012;-48
2022/01/20 01:59:51;;;;;;;;;15.25;13.75;;;;;8.58;64.79;102431.66;5040830;28;45231;-48
2022/01/20 02:02:16;;;;;;;;;20.00;18.50;;;;;8.55;64.79;102430.69;5041264;28;45634;-50
2022/01/20 02:04:42;;;;;;;;;18.25;15.50;;;;;8.52;64.72;102435.91;5040608;28;45203;-52
2022/01/20 02:20:13;;;;;;;;;18.00;15.00;;;;;8.32;64.71;102452.00;5060777;28;45277;-56
2022/01/20 02:22:40;;;;;;;;;16.25;13.75;;;;;8.29;64.44;102451.97;5042898;28;45704;-55
2022/01/20 02:25:05;;;;;;;;;19.50;16.00;;;;;8.27;64.59;102457.13;5042532;28;45435;-51
2022/01/20 02:27:31;;;;;;;;;13.00;13.00;;;;;8.25;64.51;102455.34;5060443;28;46116;-56
2022/01/20 02:29:56;;;;;;;;;17.00;12.75;;;;;8.23;64.54;102457.94;5060661;28;45335;-56
2022/01/20 02:32:21;;;;;;;;;18.50;12.00;;;;;8.21;64.19;102443.91;5060871;28;45415;-53
2022/01/20 02:34:47;;;;;;;;;17.00;14.00;;;;;8.20;64.36;102447.41;5060532;28;45732;-61
2022/01/20 02:37:14;;;;;;;;;20.75;17.75;;;;;8.19;64.36;102465.66;5060701;28;46030;-54
2022/01/20 02:44:54;;;;;;;;;17.75;13.00;;;;;8.10;64.64;102461.09;5060591;28;45313;-75
2022/01/20 02:47:29;;;;;;;;;15.75;14.25;;;;;8.07;64.51;102454.06;5060374;28;46901;-61
2022/01/20 02:49:55;;;;;;;;;14.25;12.00;;;;;8.04;64.37;102446.16;5055846;28;45471;-65
2022/01/20 02:52:23;;;;;;;;;17.75;14.75;;;;;8.04;64.42;102445.28;5040380;28;45514;-65
2022/01/20 02:54:50;;;;;;;;;18.00;12.50;;;;;8.01;64.35;102445.19;5040117;28;45403;-59
2022/01/20 02:57:16;;;;;;;;;19.50;13.50;;;;;7.98;64.30;102441.63;5040049;28;46339;-48
2022/01/20 02:59:41;;;;;;;;;15.50;13.00;;;;;7.97;64.08;102438.97;5039946;28;45436;-49
2022/01/20 03:02:09;;;;;;;;;14.00;10.25;;;;;7.92;64.24;102428.44;5040376;28;45593;-51
2022/01/20 03:04:34;;;;;;;;;15.25;13.00;;;;;7.93;64.33;102438.03;5021898;28;45361;-49
2022/01/20 03:07:00;;;;;;;;;15.00;11.25;;;;;7.92;64.33;102443.22;5021982;28;47084;-48
2022/01/20 03:09:25;;;;;;;;;10.75;7.75;;;;;7.90;64.03;102439.69;5039756;28;45293;-49
2022/01/20 03:11:52;;;;;;;;;12.50;12.00;;;;;7.88;64.20;102450.13;5022417;28;45285;-51
2022/01/20 03:14:17;;;;;;;;;9.75;9.50;;;;;7.86;64.09;102446.59;5039733;28;45298;-52
2022/01/20 03:16:47;;;;;;;;;11.00;11.00;;;;;7.85;64.05;102457.91;5040004;28;46185;-50
2022/01/20 03:19:13;;;;;;;;;8.00;7.75;;;;;7.82;63.94;102449.97;5039599;28;45226;-48
2022/01/20 03:21:40;;;;;;;;;17.75;11.00;;;;;7.81;64.16;102459.56;5039969;28;45259;-50
2022/01/20 03:24:07;;;;;;;;;9.75;9.00;;;;;7.81;64.15;102469.13;5039621;28;45329;-47
2022/01/20 03:26:33;;;;;;;;;14.25;12.00;;;;;7.77;64.15;102462.06;5039721;28;46196;-49
2022/01/20 03:28:58;;;;;;;;;13.75;11.25;;;;;7.76;64.05;102470.75;5039557;28;45347;-48
2022/01/20 03:31:25;;;;;;;;;10.75;10.25;;;;;7.75;64.02;102477.72;5040023;28;45650;-48
2022/01/20 03:33:50;;;;;;;;;14.50;11.00;;;;;7.72;63.77;102476.75;5021483;28;45424;-51
2022/01/20 03:36:16;;;;;;;;;10.50;9.00;;;;;7.70;64.05;102476.72;5039757;28;45401;-48
2022/01/20 03:38:42;;;;;;;;;13.50;10.00;;;;;7.68;63.86;102474.94;5039529;28;45253;-49
2022/01/20 03:41:07;;;;;;;;;11.25;8.25;;;;;7.65;63.99;102478.34;5024595;28;45350;-48
2022/01/20 03:43:33;;;;;;;;;12.25;10.00;;;;;7.62;63.92;102478.25;5043147;28;45519;-47
2022/01/20 03:46:00;;;;;;;;;11.75;8.50;;;;;7.61;63.92;102484.31;5043268;28;46282;-48
2022/01/20 03:48:27;;;;;;;;;9.50;6.75;;;;;7.58;63.96;102476.41;5043693;28;45260;-52
2022/01/20 03:50:59;;;;;;;;;12.00;8.50;;;;;7.58;63.81;102479.03;5050652;28;45333;-50
2022/01/20 03:53:25;;;;;;;;;10.75;9.50;;;;;7.56;63.90;102472.84;5043134;28;45317;-47
2022/01/20 03:55:51;;;;;;;;;9.00;8.25;;;;;7.56;63.70;102485.94;5042843;28;46262;-51
2022/01/20 03:58:16;;;;;;;;;7.50;6.25;;;;;7.54;63.85;102493.75;5043039;28;45352;-50
2022/01/20 04:00:43;;;;;;;;;13.00;10.00;;;;;7.54;63.80;102482.41;5043106;28;45400;-52
2022/01/20 04:03:13;;;;;;;;;8.25;4.75;;;;;7.52;63.75;102486.72;5042872;28;45423;-49
2022/01/20 04:05:50;;;;;;;;;10.25;6.25;;;;;7.49;63.70;102483.16;5042672;28;46085;-50
2022/01/20 04:08:15;;;;;;;;;6.75;6.25;;;;;7.48;63.51;102491.88;5021412;28;45442;-47
2022/01/20 04:10:41;;;;;;;;;8.00;6.75;;;;;7.47;63.78;102492.72;5022893;28;45472;-48
2022/01/20 04:13:07;;;;;;;;;10.75;8.00;;;;;7.46;63.76;102495.31;5022955;28;45322;-47
2022/01/20 04:15:38;;;;;;;;;7.50;7.50;;;;;7.46;63.65;102504.03;5022646;28;46209;-51
2022/01/20 04:18:08;;;;;;;;;7.75;5.50;;;;;7.46;63.47;102505.75;5031054;28;45302;-50
2022/01/20 04:20:34;;;;;;;;;11.50;8.50;;;;;7.44;63.44;102510.06;5026002;28;45278;-51
2022/01/20 04:22:59;;;;;;;;;10.75;9.00;;;;;7.43;63.68;102516.13;5022780;28;45238;-49
2022/01/20 04:25:25;;;;;;;;;9.00;8.25;;;;;7.42;63.61;102520.50;5022230;28;46397;-47
2022/01/20 04:27:50;;;;;;;;;15.25;9.25;;;;;7.38;63.49;102518.59;5022706;28;45286;-51
2022/01/20 04:30:16;;;;;;;;;15.25;9.25;;;;;7.40;63.63;102521.28;5022625;28;45286;-47
2022/01/20 04:32:41;;;;;;;;;8.00;6.25;;;;;7.38;63.50;102510.75;5022653;28;45242;-48
2022/01/20 04:35:07;;;;;;;;;8.25;8.00;;;;;7.36;63.67;102509.84;5022450;28;45307;-48
2022/01/20 04:37:32;;;;;;;;;8.25;8.00;;;;;7.36;63.40;102511.56;5022759;28;45276;-50
2022/01/20 04:40:00;;;;;;;;;10.00;8.00;;;;;7.35;63.50;102515.06;5022279;28;45223;-49
2022/01/20 04:42:27;;;;;;;;;10.25;9.00;;;;;7.31;63.39;102514.94;5021265;28;45342;-49
2022/01/20 04:44:58;;;;;;;;;12.25;10.00;;;;;7.31;63.52;102514.94;5020782;28;46002;-48
2022/01/20 04:47:34;;;;;;;;;16.75;9.75;;;;;7.30;63.59;102520.16;5021908;28;45431;-51
2022/01/20 04:58:12;;;;;;;;;8.50;8.00;;;;;7.25;63.36;102529.59;5022094;28;45312;-50
2022/01/20 05:00:38;;;;;;;;;9.75;8.25;;;;;7.23;63.36;102524.34;5022285;28;45229;-49
2022/01/20 05:03:05;;;;;;;;;11.00;8.50;;;;;7.22;63.43;102525.16;5021896;28;45438;-47
2022/01/20 05:05:31;;;;;;;;;15.00;10.75;;;;;7.21;63.46;102519.88;5021926;28;45395;-48
2022/01/20 05:07:57;;;;;;;;;15.75;11.00;;;;;7.20;63.32;102516.38;5036287;28;45320;-47
2022/01/20 05:10:22;;;;;;;;;10.25;6.25;;;;;7.18;63.24;102512.81;5033684;28;45466;-47
2022/01/20 05:15:20;;;;;;;;;10.25;9.75;;;;;7.15;63.46;102512.75;5041780;28;45481;-48
2022/01/20 05:17:46;;;;;;;;;9.00;8.75;;;;;7.12;63.31;102524.00;5041696;28;45572;-50
2022/01/20 05:20:12;;;;;;;;;11.00;9.75;;;;;7.11;63.27;102522.22;5023781;28;45682;-49
2022/01/20 05:22:37;;;;;;;;;9.50;8.00;;;;;7.09;63.32;102518.69;5023902;28;45372;-47
2022/01/20 05:25:04;;;;;;;;;10.00;8.75;;;;;7.07;63.16;102519.47;5041513;28;46070;-49
2022/01/20 05:27:30;;;;;;;;;10.50;7.75;;;;;7.05;63.44;102521.19;5041591;28;45167;-49
2022/01/20 05:29:56;;;;;;;;;9.00;9.00;;;;;7.05;63.27;102516.81;5023739;28;45329;-47
2022/01/20 05:32:22;;;;;;;;;10.00;9.00;;;;;7.03;63.22;102521.16;5041288;28;45234;-48
2022/01/20 05:34:48;;;;;;;;;9.25;8.00;;;;;7.01;63.39;102522.81;5041440;28;46239;-49
2022/01/20 05:37:14;;;;;;;;;8.50;8.25;;;;;7.00;63.29;102523.66;5041429;28;45394;-50
2022/01/20 05:39:39;;;;;;;;;10.50;8.50;;;;;6.98;63.35;102531.47;5023520;28;45327;-47
2022/01/20 05:42:05;;;;;;;;;5.50;5.00;;;;;6.97;63.16;102534.03;5041415;28;45350;-49
2022/01/20 05:44:30;;;;;;;;;11.75;8.25;;;;;6.94;63.33;102536.53;5041245;28;45294;-51
2022/01/20 05:46:56;;;;;;;;;10.00;7.75;;;;;6.95;63.33;102548.78;5023383;28;45483;-49
2022/01/20 05:49:21;;;;;;;;;9.50;9.00;;;;;6.93;63.21;102550.44;5049373;28;45333;-49
2022/01/20 05:51:49;;;;;;;;;8.00;4.00;;;;;6.91;63.18;102546.91;5041370;28;45294;-47
2022/01/20 05:54:14;;;;;;;;;10.00;7.75;;;;;6.91;63.35;102550.41;5040936;28;45458;-48
2022/01/20 05:56:40;;;;;;;;;10.75;7.00;;;;;6.89;63.09;102551.19;5041081;28;45302;-50
2022/01/20 05:59:05;;;;;;;;;8.00;7.50;;;;;6.89;63.26;102556.44;5041265;28;45233;-49
2022/01/20 06:01:33;;;;;;;;;9.25;8.00;;;;;6.87;63.21;102552.88;5033908;28;45402;-47
2022/01/20 06:03:58;;;;;;;;;5.75;4.75;;;;;6.88;63.18;102559.88;5046433;28;46125;-47
2022/01/20 06:06:24;;;;;;;;;5.00;5.00;;;;;6.85;63.13;102559.81;5040872;28;45862;-48
2022/01/20 06:08:51;;;;;;;;;9.00;5.75;;;;;6.86;63.23;102567.69;5041067;28;45360;-49
2022/01/20 06:11:16;;;;;;;;;8.75;7.00;;;;;6.86;63.18;102572.91;5040894;28;45423;-47
2022/01/20 06:13:42;;;;;;;;;15.00;9.75;;;;;6.86;63.24;102572.03;5040722;28;45344;-49
2022/01/20 06:16:07;;;;;;;;;8.25;7.50;;;;;6.86;63.10;102574.66;5023060;28;45431;-48
2022/01/20 06:18:33;;;;;;;;;8.75;8.75;;;;;6.85;63.09;102571.13;5040893;28;45240;-47
2022/01/20 06:20:59;;;;;;;;;3.75;3.75;;;;;6.85;63.04;102568.50;5040759;28;45468;-47
2022/01/20 06:23:25;;;;;;;;;16.25;12.50;;;;;6.84;62.96;102574.56;5040712;28;45258;-48
2022/01/20 06:25:51;;;;;;;;;8.00;7.00;;;;;6.86;63.08;102582.50;5022758;28;45337;-49
2022/01/20 06:28:19;;;;;;;;;13.00;9.00;;;;;6.85;62.91;102583.31;5040803;28;45329;-48
2022/01/20 06:30:45;;;;;;;;;9.00;7.00;;;;;6.87;63.28;102590.38;5040506;28;45470;-47
2022/01/20 06:33:10;;;;;;;;;9.00;6.75;;;;;6.88;62.97;102586.00;5040090;28;45326;-49
2022/01/20 06:35:36;;;;;;;;;11.50;9.00;;;;;6.88;63.04;102586.91;5034479;28;45433;-51
2022/01/20 06:38:02;;;;;;;;;9.00;8.25;;;;;6.88;63.04;102588.63;5028698;28;45334;-48
2022/01/20 06:40:28;;;;;;;;;8.75;6.25;;;;;6.88;63.08;102586.00;5040597;28;45386;-46
2022/01/20 06:42:53;;;;;;;;;7.25;5.00;;;;;6.88;63.10;102579.06;5040211;28;46093;-50
2022/01/20 06:45:20;;;;;;;;;7.00;5.75;;;;;6.92;63.12;102593.13;5040461;28;45330;-50
2022/01/20 06:47:46;;;;;;;;;9.75;8.75;;;;;6.90;62.85;102587.84;5040139;28;45241;-48
2022/01/20 06:50:12;;;;;;;;;8.50;8.25;;;;;6.94;63.05;102591.44;5048768;28;45404;-46
2022/01/20 06:52:38;;;;;;;;;9.00;5.00;;;;;6.95;62.83;102593.22;5040135;28;45251;-48
2022/01/20 06:55:07;;;;;;;;;7.00;7.00;;;;;6.95;62.86;102598.44;5022272;28;45360;-49
2022/01/20 06:57:33;;;;;;;;;13.00;9.75;;;;;6.96;63.00;102603.72;5040164;28;45336;-51
2022/01/20 06:59:59;;;;;;;;;3.50;2.50;;;;;6.96;63.04;102608.06;5022362;28;45846;-48
2022/01/20 07:02:25;;;;;;;;;7.75;4.50;;;;;6.96;62.99;102610.69;5039713;28;45234;-51
2022/01/20 07:04:51;;;;;;;;;7.25;6.00;;;;;6.99;62.83;102622.13;5040189;28;45310;-49
2022/01/20 07:07:19;;;;;;;;;10.25;6.75;;;;;7.00;63.03;102626.47;5022047;28;45353;-47
2022/01/20 07:09:45;;;;;;;;;9.00;6.75;;;;;7.01;63.09;102630.00;5010131;28;45476;-48
2022/01/20 07:12:10;;;;;;;;;9.00;7.25;;;;;6.99;62.95;102637.81;5039908;28;45493;-49
2022/01/20 07:14:37;;;;;;;;;9.50;8.00;;;;;7.01;63.01;102650.91;5039168;28;45316;-46
2022/01/20 07:17:04;;;;;;;;;12.25;9.50;;;;;7.02;62.99;102657.91;5040179;28;45290;-49
2022/01/20 07:19:29;;;;;;;;;11.50;10.00;;;;;7.02;62.93;102662.25;5039680;28;45274;-49
2022/01/20 07:21:55;;;;;;;;;10.00;9.25;;;;;7.02;63.02;102663.16;5021870;28;45360;-46
2022/01/20 07:24:20;;;;;;;;;9.50;8.00;;;;;6.99;62.96;102661.31;5021892;28;45262;-48
2022/01/20 07:26:45;;;;;;;;;7.75;7.50;;;;;7.02;63.02;102670.09;5039943;28;45213;-48
2022/01/20 07:29:11;;;;;;;;;7.75;6.75;;;;;7.01;62.82;102669.22;5039911;28;45249;-48
2022/01/20 07:31:36;;;;;;;;;7.25;7.25;;;;;7.02;62.89;102675.31;5039649;28;46445;-46
2022/01/20 07:34:02;;;;;;;;;14.25;10.00;;;;;7.03;62.60;102684.94;5039594;28;45317;-48
2022/01/20 07:36:27;;;;;;;;;8.75;8.00;;;;;7.00;62.79;102681.38;5039908;28;45264;-47
2022/01/20 07:38:53;;;;;;;;;11.75;10.25;;;;;7.00;62.78;102678.75;5039624;28;45550;-47
2022/01/20 07:41:18;;;;;;;;;13.50;10.00;;;;;7.02;62.95;102684.06;5039470;28;46278;-48
2022/01/20 07:43:44;;;;;;;;;11.75;9.00;;;;;7.00;62.91;102686.59;5039728;28;45293;-48
2022/01/20 07:46:09;;;;;;;;;10.75;9.75;;;;;7.02;62.71;102684.06;5039922;28;45234;-48
2022/01/20 07:48:34;;;;;;;;;15.75;9.75;;;;;7.01;62.92;102687.50;5041591;28;45441;-47
2022/01/20 07:51:01;;;;;;;;;25.50;19.50;;;;;6.98;62.94;102677.84;5044706;28;45954;-50
2022/01/20 07:53:26;;;;;;;;;8.00;6.00;;;;;6.98;62.80;102676.94;5021711;28;45563;-47
2022/01/20 07:55:52;;;;;;;;;8.00;7.00;;;;;7.00;62.78;102680.50;5039477;28;45329;-48
2022/01/20 07:58:18;;;;;;;;;8.00;8.00;;;;;7.00;62.81;102681.38;5039618;28;45512;-46
2022/01/20 08:00:43;;;;;;;;;10.75;9.00;;;;;7.01;62.85;102682.28;5021502;28;48091;-47
2022/01/20 08:03:08;;;;;;;;;7.00;5.00;;;;;7.00;62.83;102677.88;5039320;28;45265;-46
2022/01/20 08:05:34;;;;;;;;;9.50;9.25;;;;;7.02;62.98;102678.84;5021581;28;45431;-51
2022/01/20 08:07:59;;;;;;;;;7.75;4.50;;;;;7.01;62.75;102684.91;5039069;28;45599;-47
2022/01/20 08:10:25;;;;;;;;;11.75;9.50;;;;;7.03;62.96;102682.31;5039076;28;45317;-47
2022/01/20 08:12:50;;;;;;;;;8.00;7.25;;;;;7.05;62.99;102680.66;5039477;28;45236;-46
2022/01/20 08:15:16;;;;;;;;;6.00;5.00;;;;;7.06;62.85;102674.59;5039533;28;45841;-47
2022/01/20 08:17:42;;;;;;;;;9.00;8.50;;;;;7.05;62.94;102683.28;5039057;28;45195;-47
2022/01/20 08:20:09;;;;;;;;;11.75;9.50;;;;;7.09;62.82;102693.84;5034538;28;45344;-49
2022/01/20 08:22:35;;;;;;;;;14.25;10.75;;;;;7.09;63.02;102695.59;5037834;28;46233;-47
2022/01/20 08:25:05;;;;;;;;;14.50;7.75;;;;;7.09;62.72;102693.84;5039216;28;45447;-51
2022/01/20 08:27:30;;;;;;;;;12.25;10.75;;;;;7.15;63.13;102694.03;5042377;28;45234;-46
2022/01/20 08:29:56;;;;;;;;;13.00;10.25;;;;;7.20;63.02;102690.72;5042337;28;45429;-47
2022/01/20 08:32:21;;;;;;;;;10.75;9.75;;;;;7.22;63.10;102686.38;5042374;28;45381;-47
2022/01/20 08:34:47;;;;;;;;;13.00;9.00;;;;;7.26;63.31;102683.06;5042656;28;45142;-48
2022/01/20 08:37:12;;;;;;;;;21.75;15.25;;;;;7.30;63.14;102685.78;5024722;28;45167;-47
2022/01/20 08:39:56;;;;;;;;;11.50;9.75;;;;;7.36;63.06;102679.88;5041951;28;45343;-49
2022/01/20 08:42:22;;;;;;;;;14.25;10.50;;;;;7.41;63.06;102693.97;5042492;28;45317;-52
2022/01/20 08:44:48;;;;;;;;;11.25;10.25;;;;;7.45;63.11;102693.22;5042212;28;45171;-50
2022/01/20 08:47:17;;;;;;;;;14.75;11.00;;;;;7.50;63.29;102703.81;5041939;28;45257;-51
2022/01/20 08:49:46;;;;;;;;;19.25;16.75;;;;;7.56;63.21;102713.56;5050261;28;46164;-52
2022/01/20 08:52:12;;;;;;;;;13.50;11.00;;;;;7.60;63.38;102716.34;5042209;28;45332;-49
2022/01/20 08:54:37;;;;;;;;;17.25;12.25;;;;;7.66;63.35;102720.88;5041912;28;45235;-48
2022/01/20 08:57:04;;;;;;;;;16.50;14.00;;;;;7.71;63.20;102718.38;5024142;28;45283;-47
2022/01/20 08:59:29;;;;;;;;;14.50;11.00;;;;;7.75;63.28;102726.38;5041854;28;45660;-47
2022/01/20 09:01:55;;;;;;;;;14.00;12.25;;;;;7.79;63.36;102716.88;5041950;28;45390;-49
2022/01/20 09:04:20;;;;;;;;;14.75;11.00;;;;;7.83;63.32;102703.03;5041707;28;45376;-47
2022/01/20 09:06:45;;;;;;;;;13.75;11.50;;;;;7.87;63.01;102704.00;5041743;28;45309;-49
2022/01/20 09:09:11;;;;;;;;;12.50;10.50;;;;;7.91;63.32;102708.47;5041511;28;45384;-50
2022/01/20 09:11:43;;;;;;;;;18.00;12.00;;;;;7.94;63.22;102709.47;5041943;28;45339;-51
2022/01/20 09:16:53;;;;;;;;;11.75;11.75;;;;;8.01;63.49;102713.13;5041776;28;45282;-47
2022/01/20 09:19:18;;;;;;;;;14.00;12.25;;;;;8.05;63.36;102709.78;5041381;28;45226;-48
2022/01/20 09:21:45;;;;;;;;;17.50;12.00;;;;;8.11;63.43;102719.50;5041507;28;45278;-48
2022/01/20 09:24:10;;;;;;;;;13.00;13.00;;;;;8.17;63.26;102724.03;5041617;28;45329;-47
2022/01/20 09:26:36;;;;;;;;;19.75;12.75;;;;;8.22;63.33;102732.91;5041374;28;45396;-52
2022/01/20 09:29:02;;;;;;;;;13.75;12.25;;;;;8.26;63.38;102732.13;5041702;28;45325;-48
2022/01/20 09:31:30;;;;;;;;;14.75;12.25;;;;;8.31;63.38;102743.63;5041478;28;45321;-50
2022/01/20 09:33:56;;;;;;;;;13.50;12.75;;;;;8.36;63.29;102741.16;5041245;28;45283;-49
2022/01/20 09:36:23;;;;;;;;;14.75;13.25;;;;;8.40;63.30;102743.00;5041445;28;45424;-51
2022/01/20 09:38:49;;;;;;;;;19.00;15.00;;;;;8.47;63.46;102751.97;5022721;28;47155;-50
2022/01/20 09:41:15;;;;;;;;;15.00;13.25;;;;;8.51;63.59;102753.81;5041159;28;45369;-52
2022/01/20 09:43:41;;;;;;;;;14.75;12.50;;;;;8.56;63.54;102755.69;5041400;28;45512;-47
2022/01/20 09:46:06;;;;;;;;;12.25;11.00;;;;;8.60;63.29;102748.78;5041426;28;45513;-52
2022/01/20 09:48:32;;;;;;;;;12.50;12.00;;;;;8.66;63.48;102742.84;5024891;28;46222;-47
2022/01/20 09:51:00;;;;;;;;;19.00;15.50;;;;;8.68;63.41;102744.66;5047284;28;45331;-48
2022/01/20 09:53:26;;;;;;;;;17.00;12.50;;;;;8.75;63.48;102746.59;5041355;28;45346;-49
2022/01/20 09:55:52;;;;;;;;;18.75;13.00;;;;;8.80;63.23;102744.06;5040871;28;45352;-51
2022/01/20 09:58:18;;;;;;;;;13.25;12.00;;;;;8.86;63.56;102738.09;5040934;28;46205;-48
2022/01/20 10:00:45;;;;;;;;;13.75;12.00;;;;;8.89;63.48;102735.53;5040991;28;45346;-48
2022/01/20 10:03:14;;;;;;;;;14.50;11.25;;;;;8.93;63.58;102735.66;5041007;28;45415;-48
2022/01/20 10:05:45;;;;;;;;;14.75;14.25;;;;;9.00;63.51;102738.44;5040853;28;45541;-50
2022/01/20 10:08:23;;;;;;;;;22.00;15.25;;;;;9.05;63.44;102736.81;5031433;28;45313;-48
2022/01/20 10:10:56;;;;;;;;;15.50;14.75;;;;;9.11;63.53;102735.22;5060601;28;45162;-51
2022/01/20 10:13:25;;;;;;;;;13.75;12.00;;;;;9.18;63.35;102740.59;5061075;28;45299;-50
2022/01/20 10:16:30;;;;;;;;;18.25;14.75;;;;;9.26;63.55;102749.56;5060766;28;45458;-48
2022/01/20 10:18:57;;;;;;;;;13.25;12.00;;;;;9.32;63.35;102757.56;5021433;28;45985;-50
2022/01/20 10:21:31;;;;;;;;;17.50;13.00;;;;;9.38;63.30;102760.34;5056868;28;45214;-51
2022/01/20 10:24:08;;;;;;;;;11.75;11.75;;;;;9.47;63.33;102769.25;5060708;28;45222;-47
2022/01/20 10:26:34;;;;;;;;;11.50;11.50;;;;;9.52;63.44;102776.41;5060703;28;45252;-47
2022/01/20 10:29:15;;;;;;;;;17.25;12.75;;;;;9.58;63.87;102787.03;5042324;28;47184;-50
2022/01/20 10:31:44;;;;;;;;;19.25;12.00;;;;;9.65;63.68;102781.91;5060527;28;45344;-48
2022/01/20 10:34:30;;;;;;;;;15.50;14.00;;;;;9.72;63.34;102781.19;5060521;28;45569;-48
2022/01/20 10:37:00;;;;;;;;;22.25;13.50;;;;;9.78;63.51;102788.31;5060469;28;45319;-49
2022/01/20 10:39:34;;;;;;;;;15.50;12.25;;;;;9.85;63.56;102785.84;5060364;28;46260;-50
2022/01/20 10:42:06;;;;;;;;;13.50;11.75;;;;;9.88;63.63;102787.66;5060363;28;45295;-48
2022/01/20 10:44:48;;;;;;;;;13.00;11.75;;;;;9.99;63.58;102793.16;5060462;28;45331;-51
2022/01/20 10:47:36;;;;;;;;;13.50;12.50;;;;;10.04;63.57;102786.25;5042273;28;45448;-49
2022/01/20 10:50:13;;;;;;;;;17.75;14.75;;;;;10.11;63.51;102788.13;5052992;28;47139;-47
2022/01/20 10:52:43;;;;;;;;;17.75;13.75;;;;;10.18;63.64;102787.41;5040166;28;45240;-50
2022/01/20 10:55:34;;;;;;;;;15.25;12.00;;;;;10.23;63.56;102788.38;5040153;28;45228;-48
2022/01/20 10:58:30;;;;;;;;;20.25;14.75;;;;;10.32;63.45;102785.06;5040029;28;45447;-50
2022/01/20 11:00:56;;;;;;;;;13.75;9.75;;;;;10.36;63.43;102776.44;5027236;28;46568;-50
2022/01/20 11:03:26;;;;;;;;;7.50;6.50;;;;;10.45;63.32;102775.69;5039847;28;45175;-50
2022/01/20 11:05:53;;;;;;;;;15.00;15.00;;;;;10.50;63.34;102779.31;5040207;28;45419;-47
2022/01/20 11:08:19;;;;;;;;;15.00;13.50;;;;;10.58;63.42;102787.34;5039558;28;45498;-47
2022/01/20 11:10:45;;;;;;;;;17.00;14.00;;;;;10.62;63.29;102776.00;5039684;28;46344;-51
2022/01/20 11:13:13;;;;;;;;;17.25;14.50;;;;;10.68;63.32;102783.13;5039923;28;45250;-52
2022/01/20 11:15:40;;;;;;;;;14.75;10.00;;;;;10.69;63.32;102785.78;5039819;28;45178;-49
2022/01/20 11:18:08;;;;;;;;;13.25;10.75;;;;;10.75;63.28;102784.13;5039638;28;45490;-51
2022/01/20 11:20:45;;;;;;;;;13.25;9.00;;;;;10.81;63.35;102774.59;5039712;28;45429;-50
2022/01/20 11:23:11;;;;;;;;;15.50;8.50;;;;;10.85;63.26;102779.03;5021804;28;45255;-49
2022/01/20 11:25:39;;;;;;;;;10.25;9.25;;;;;10.92;63.06;102769.50;5039595;28;45446;-49
2022/01/20 11:28:21;;;;;;;;;14.25;10.75;;;;;11.00;63.32;102774.91;5021732;28;45347;-50
2022/01/20 11:30:55;;;;;;;;;13.75;10.25;;;;;11.03;63.21;102760.06;5047189;28;45337;-51
2022/01/20 11:33:35;;;;;;;;;10.75;8.00;;;;;11.15;62.98;102763.75;5059412;28;45245;-51
2022/01/20 11:36:00;;;;;;;;;13.25;9.25;;;;;11.22;62.92;102761.22;5059945;28;45371;-49
2022/01/20 11:38:39;;;;;;;;;12.50;9.00;;;;;11.32;62.77;102757.00;5059757;28;45352;-50
2022/01/20 11:41:05;;;;;;;;;8.00;8.00;;;;;11.44;62.83;102763.28;5041974;28;45499;-51
2022/01/20 11:43:52;;;;;;;;;8.75;7.00;;;;;11.52;62.87;102759.91;5059724;28;45159;-51
2022/01/20 11:46:24;;;;;;;;;10.75;8.25;;;;;11.63;62.69;102760.03;5059844;28;45288;-48
2022/01/20 11:49:00;;;;;;;;;12.50;9.00;;;;;11.73;62.80;102755.78;5059265;28;45269;-50
2022/01/20 11:51:47;;;;;;;;;12.50;9.00;;;;;11.81;62.86;102764.69;5042052;28;45376;-52
2022/01/20 11:54:17;;;;;;;;;13.00;8.25;;;;;11.90;62.64;102755.13;5039540;28;45303;-53
2022/01/20 11:56:44;;;;;;;;;10.25;7.25;;;;;11.91;62.64;102765.69;5039587;28;45253;-52
2022/01/20 11:59:13;;;;;;;;;7.75;6.50;;;;;12.01;62.64;102772.88;5039391;28;45205;-51
2022/01/20 12:01:56;;;;;;;;;11.00;8.00;;;;;12.05;62.48;102765.00;5041306;28;47048;-51
2022/01/20 12:04:40;;;;;;;;;8.75;7.00;;;;;12.10;62.30;102774.72;5042795;28;45269;-52
2022/01/20 12:07:08;;;;;;;;;11.50;6.50;;;;;12.14;62.38;102770.38;5042818;28;46323;-51
2022/01/20 12:09:39;;;;;;;;;7.25;6.75;;;;;12.17;62.02;102757.22;5042500;28;45265;-52
2022/01/20 12:12:17;;;;;;;;;10.75;8.25;;;;;12.19;62.27;102772.19;5042801;28;45366;-49
2022/01/20 12:14:43;;;;;;;;;8.25;7.25;;;;;12.20;61.83;102778.38;5042805;28;45460;-57
2022/01/20 12:17:11;;;;;;;;;7.75;7.50;;;;;12.23;61.84;102778.38;5049945;28;45699;-52
2022/01/20 12:19:37;;;;;;;;;10.00;7.00;;;;;12.21;61.66;102772.19;5042676;28;45463;-52
2022/01/20 12:22:04;;;;;;;;;7.75;5.00;;;;;12.23;61.80;102777.53;5050005;28;46080;-50
2022/01/20 12:24:32;;;;;;;;;5.50;4.50;;;;;12.24;61.64;102777.53;5042579;28;45265;-52
2022/01/20 12:26:58;;;;;;;;;5.75;4.50;;;;;12.25;61.61;102775.75;5042560;28;45186;-49
2022/01/20 12:29:34;;;;;;;;;10.00;9.00;;;;;12.25;61.42;102779.31;5042631;28;45269;-51
2022/01/20 12:32:00;;;;;;;;;9.00;7.00;;;;;12.22;61.64;102773.97;5042256;28;47035;-51